Time;durP1;ratioP1;P1;durP2;ratioP2;P2;SDS_P1;SDS_P2;PMS_P1;PMS_P2;Temp;Humidity;BMP_temperature;BMP_pressure;BME280_temperature;BME280_humidity;BME280_pressure;Samples;Min_cycle;Max_cycle;Signal;HPM_P1;HPM_P2
2021/06/02 00:00:08;;;;;;;11.60;3.53;;;;;;;11.41;67.73;100362.29;126322;1099;104168;-78
2021/06/02 00:03:03;;;;;;;6.03;3.50;;;;;;;11.41;67.95;100364.91;126239;1099;104185;-78
2021/06/02 00:05:32;;;;;;;5.97;3.30;;;;;;;11.37;67.97;100365.66;126315;1099;104171;-78
2021/06/02 00:08:02;;;;;;;9.53;3.67;;;;;;;11.35;67.95;100355.10;126313;1099;104146;-78
2021/06/02 00:10:31;;;;;;;8.57;3.17;;;;;;;11.32;68.01;100357.63;126278;1099;105198;-78
2021/06/02 00:13:03;;;;;;;7.30;3.30;;;;;;;11.30;68.17;100354.96;126252;1099;104268;-78
2021/06/02 00:15:34;;;;;;;5.93;3.20;;;;;;;11.30;68.02;100354.08;126305;1099;104139;-78
2021/06/02 00:18:10;;;;;;;7.27;3.50;;;;;;;11.27;68.39;100349.61;126258;1098;104131;-78
2021/06/02 00:20:45;;;;;;;8.13;3.10;;;;;;;11.21;68.47;100357.31;126209;1099;104377;-78
2021/06/02 00:23:18;;;;;;;9.33;3.90;;;;;;;11.15;68.53;100352.74;126260;1099;104248;-78
2021/06/02 00:25:51;;;;;;;8.00;3.20;;;;;;;11.12;68.87;100347.39;126265;1099;104248;-78
2021/06/02 00:28:29;;;;;;;7.92;3.37;;;;;;;11.09;68.87;100349.92;126318;1099;104284;-78
2021/06/02 00:31:03;;;;;;;7.90;3.30;;;;;;;11.09;68.82;100341.17;126310;1099;104169;-78
2021/06/02 00:33:40;;;;;;;6.57;3.20;;;;;;;11.07;68.78;100335.87;126232;1099;104129;-78
2021/06/02 00:36:20;;;;;;;7.73;3.30;;;;;;;11.07;68.73;100337.61;126287;1098;104140;-77
2021/06/02 00:38:54;;;;;;;9.77;3.03;;;;;;;11.05;68.67;100340.19;126342;1099;104155;-79
2021/06/02 00:41:30;;;;;;;9.33;3.55;;;;;;;11.04;69.14;100342.77;126253;1099;104143;-77
2021/06/02 00:44:07;;;;;;;5.50;3.70;;;;;;;11.01;69.12;100326.92;126244;1099;104588;-78
2021/06/02 00:46:43;;;;;;;8.30;3.43;;;;;;;10.97;69.17;100320.69;126270;1099;104146;-79
2021/06/02 00:49:23;;;;;;;6.73;3.57;;;;;;;10.94;69.34;100321.48;126286;1099;104200;-77
2021/06/02 00:52:01;;;;;;;6.13;3.10;;;;;;;10.92;69.40;100320.55;126302;1099;104150;-77
2021/06/02 00:54:38;;;;;;;6.37;3.10;;;;;;;10.91;69.41;100315.25;126255;1099;105575;-79
2021/06/02 00:57:16;;;;;;;9.63;3.37;;;;;;;10.91;69.37;100310.88;126343;1099;104265;-78
2021/06/02 01:00:05;;;;;;;7.47;3.10;;;;;;;10.91;69.32;100315.25;126243;1099;104567;-77
2021/06/02 01:02:40;;;;;;;6.60;3.47;;;;;;;10.90;69.86;100314.34;126268;1099;104303;-78
2021/06/02 01:05:11;;;;;;;5.80;3.33;;;;;;;10.91;69.52;100308.25;126249;1098;104239;-77
2021/06/02 01:07:41;;;;;;;5.60;3.63;;;;;;;10.90;69.62;100295.96;126342;1099;104147;-78
2021/06/02 01:10:13;;;;;;;8.43;3.27;;;;;;;10.92;69.94;100298.63;126311;1099;104566;-79
2021/06/02 01:12:42;;;;;;;7.35;3.35;;;;;;;10.92;69.37;100296.01;126317;1098;104141;-77
2021/06/02 01:15:15;;;;;;;7.37;3.70;;;;;;;10.91;69.68;100286.38;126241;1099;104165;-79
2021/06/02 01:17:44;;;;;;;8.40;3.73;;;;;;;10.89;69.79;100295.91;126302;1099;104156;-78
2021/06/02 01:20:16;;;;;;;7.50;3.70;;;;;;;10.87;70.08;100292.36;126289;1099;104235;-78
2021/06/02 01:22:47;;;;;;;9.57;3.40;;;;;;;10.86;70.03;100288.86;126354;1099;104585;-78
2021/06/02 01:25:20;;;;;;;9.03;3.27;;;;;;;10.87;69.91;100292.36;126243;1098;104147;-78
2021/06/02 01:27:50;;;;;;;7.27;3.40;;;;;;;10.86;70.03;100288.86;126301;1098;104297;-78
2021/06/02 01:30:25;;;;;;;7.40;3.27;;;;;;;10.87;70.04;100294.98;126279;1099;104213;-76
2021/06/02 01:33:25;;;;;;;5.97;3.20;;;;;;;10.88;69.62;100295.03;126306;1099;104222;-78
2021/06/02 01:36:10;;;;;;;6.77;3.40;;;;;;;10.89;70.16;100285.41;126265;1096;104297;-78
2021/06/02 01:39:07;;;;;;;8.13;3.40;;;;;;;10.91;69.76;100281.13;126263;1099;104216;-78
2021/06/02 01:42:02;;;;;;;5.67;3.07;;;;;;;10.92;70.02;100280.26;126286;1099;104155;-78
2021/06/02 01:45:08;;;;;;;7.50;3.60;;;;;;;10.94;69.89;100283.84;126233;1099;104153;-78
2021/06/02 01:48:05;;;;;;;9.60;3.37;;;;;;;10.94;70.07;100284.72;126276;1099;104162;-78
2021/06/02 01:51:02;;;;;;;7.20;3.23;;;;;;;10.95;69.88;100280.35;126199;1099;104261;-78
2021/06/02 01:53:57;;;;;;;8.17;3.43;;;;;;;10.96;70.05;100282.14;126197;1098;104150;-78
2021/06/02 01:56:54;;;;;;;5.90;3.37;;;;;;;10.96;70.32;100276.89;126224;1097;104137;-78
2021/06/02 01:59:53;;;;;;;9.20;3.50;;;;;;;10.96;70.17;100272.52;126264;1099;104248;-77
2021/06/02 02:02:53;;;;;;;6.03;3.10;;;;;;;10.97;70.08;100283.94;126298;1099;104227;-78
2021/06/02 02:05:58;;;;;;;6.60;3.27;;;;;;;10.99;69.92;100281.36;126207;1099;104395;-78
2021/06/02 02:08:43;;;;;;;4.37;3.10;;;;;;;11.00;69.90;100278.78;126264;1099;104306;-78
2021/06/02 02:11:30;;;;;;;9.25;3.45;;;;;;;11.01;70.07;100285.80;126315;1099;104146;-78
2021/06/02 02:14:32;;;;;;;7.03;3.60;;;;;;;11.02;70.08;100270.95;126268;1099;104245;-78
2021/06/02 02:17:32;;;;;;;10.90;3.70;;;;;;;11.03;69.74;100273.63;126212;1099;104133;-78
2021/06/02 02:20:14;;;;;;;9.17;3.30;;;;;;;11.04;69.63;100275.38;125533;1099;104272;-77
2021/06/02 02:23:03;;;;;;;5.87;3.17;;;;;;;11.04;70.00;100272.76;126289;1099;104300;-77
2021/06/02 02:25:48;;;;;;;5.60;3.00;;;;;;;11.05;70.21;100282.42;126244;1099;104143;-78
2021/06/02 02:28:41;;;;;;;7.13;3.47;;;;;;;11.05;69.88;100274.55;126309;1099;104185;-78
2021/06/02 02:31:23;;;;;;;6.33;3.67;;;;;;;11.05;69.87;100277.17;126309;1099;104131;-78
2021/06/02 02:34:01;;;;;;;4.30;2.90;;;;;;;11.07;69.71;100283.35;126294;1099;105290;-78
2021/06/02 02:36:37;;;;;;;7.87;3.40;;;;;;;11.08;69.83;100281.61;126194;1099;104345;-77
2021/06/02 02:39:16;;;;;;;7.33;3.03;;;;;;;11.11;69.84;100279.98;126323;1099;104242;-78
2021/06/02 02:42:04;;;;;;;7.60;3.27;;;;;;;11.15;69.88;100278.33;126285;1098;104152;-78
2021/06/02 02:44:54;;;;;;;8.47;3.27;;;;;;;11.18;69.65;100285.42;126335;1099;104137;-77
2021/06/02 02:47:32;;;;;;;8.63;3.60;;;;;;;11.19;69.79;100276.67;126291;1099;104192;-77
2021/06/02 02:50:10;;;;;;;7.00;3.17;;;;;;;11.19;69.70;100285.47;126255;1099;104261;-77
2021/06/02 02:52:53;;;;;;;5.93;3.03;;;;;;;11.21;69.81;100285.52;126298;1099;104264;-78
2021/06/02 02:55:29;;;;;;;5.67;3.10;;;;;;;11.22;70.10;100293.44;126288;1099;104165;-78
2021/06/02 02:58:05;;;;;;;10.70;3.30;;;;;;;11.25;70.11;100287.36;126275;1099;104140;-77
2021/06/02 03:00:42;;;;;;;9.43;3.37;;;;;;;11.25;69.64;100295.24;126311;1099;104200;-77
2021/06/02 03:03:21;;;;;;;4.63;2.90;;;;;;;11.27;69.83;100280.44;126267;1098;104143;-78
2021/06/02 03:06:05;;;;;;;4.33;2.97;;;;;;;11.30;69.59;100283.16;126174;1099;104171;-78
2021/06/02 03:08:48;;;;;;;5.87;3.00;;;;;;;11.33;69.60;100281.50;126224;1099;109470;-77
2021/06/02 03:11:24;;;;;;;8.40;3.20;;;;;;;11.37;69.24;100286.84;126325;1098;104142;-78
2021/06/02 03:14:05;;;;;;;7.93;3.30;;;;;;;11.41;69.54;100283.47;126306;1099;104155;-78
2021/06/02 03:16:39;;;;;;;8.13;2.97;;;;;;;11.44;69.29;100292.33;126162;1099;104178;-76
2021/06/02 03:19:13;;;;;;;8.47;3.07;;;;;;;11.46;69.68;100293.25;126277;1099;104188;-78
2021/06/02 03:21:59;;;;;;;12.03;3.52;;;;;;;11.49;69.47;100290.70;126321;1099;104219;-78
2021/06/02 03:24:48;;;;;;;8.17;3.40;;;;;;;11.51;69.53;100290.75;126269;1099;104174;-77
2021/06/02 03:27:26;;;;;;;8.77;3.17;;;;;;;11.51;69.20;100294.29;126226;1098;104201;-78
2021/06/02 03:30:08;;;;;;;5.43;3.30;;;;;;;11.50;69.34;100281.11;126293;1099;104318;-78
2021/06/02 03:32:55;;;;;;;7.53;3.33;;;;;;;11.49;69.28;100284.58;126303;1099;104137;-77
2021/06/02 03:35:36;;;;;;;7.77;3.10;;;;;;;11.49;69.17;100287.20;126297;1098;104145;-77
2021/06/02 03:38:18;;;;;;;7.53;3.23;;;;;;;11.48;68.67;100281.06;126260;1099;104162;-77
2021/06/02 03:40:58;;;;;;;5.43;3.33;;;;;;;11.48;69.00;100281.06;126279;1099;104153;-77
2021/06/02 03:43:34;;;;;;;8.53;3.13;;;;;;;11.47;69.30;100276.64;126272;1099;104139;-77
2021/06/02 03:46:18;;;;;;;8.63;3.57;;;;;;;11.48;69.25;100282.78;126286;1099;104201;-78
2021/06/02 03:49:01;;;;;;;6.80;3.30;;;;;;;11.48;69.11;100281.06;126237;1099;104149;-77
2021/06/02 03:51:38;;;;;;;7.40;3.50;;;;;;;11.49;69.13;100277.57;126302;1099;104146;-78
2021/06/02 03:54:18;;;;;;;11.63;4.47;;;;;;;11.50;69.13;100273.23;126316;1099;102773;-76
2021/06/02 03:57:12;;;;;;;8.17;3.30;;;;;;;11.53;68.98;100282.91;126283;1099;104337;-78
2021/06/02 03:59:44;;;;;;;8.10;3.50;;;;;;;11.53;68.95;100278.57;126243;1099;104181;-78
2021/06/02 04:02:21;;;;;;;7.87;3.23;;;;;;;11.55;69.08;100279.49;126301;1099;104149;-77
2021/06/02 04:05:12;;;;;;;6.63;3.30;;;;;;;11.55;69.09;100283.87;126323;1099;104223;-78
2021/06/02 04:07:57;;;;;;;6.43;3.20;;;;;;;11.52;69.16;100284.66;126289;1099;104206;-77
2021/06/02 04:10:38;;;;;;;6.93;3.20;;;;;;;11.50;69.12;100292.50;126210;1099;104207;-76
2021/06/02 04:13:16;;;;;;;7.33;3.80;;;;;;;11.49;69.33;100289.83;126250;1099;104142;-77
2021/06/02 04:15:49;;;;;;;8.43;3.70;;;;;;;11.47;69.13;100288.91;126298;1099;104248;-77
2021/06/02 04:18:23;;;;;;;10.45;3.65;;;;;;;11.46;69.21;100293.25;126284;1099;104223;-77
2021/06/02 04:20:53;;;;;;;9.00;3.60;;;;;;;11.46;69.21;100295.88;126252;1099;104156;-78
2021/06/02 04:23:23;;;;;;;8.53;3.20;;;;;;;11.48;68.86;100293.29;126268;1099;104527;-78
2021/06/02 04:25:53;;;;;;;5.77;3.40;;;;;;;11.48;69.46;100296.83;126318;1099;101784;-77
2021/06/02 04:28:23;;;;;;;8.13;3.67;;;;;;;11.49;69.09;100298.59;126265;1099;104226;-78
2021/06/02 04:31:00;;;;;;;8.03;3.53;;;;;;;11.47;69.19;100287.16;126311;1099;104592;-78
2021/06/02 04:33:34;;;;;;;10.57;3.77;;;;;;;11.47;69.13;100292.41;126256;1098;104233;-78
2021/06/02 04:36:05;;;;;;;9.25;4.05;;;;;;;11.49;69.09;100292.45;126269;1099;104149;-78
2021/06/02 04:38:35;;;;;;;9.95;3.55;;;;;;;11.48;69.21;100288.03;126169;1099;104137;-78
2021/06/02 04:41:07;;;;;;;8.53;3.53;;;;;;;11.47;69.21;100289.78;126134;1099;104165;-77
2021/06/02 04:43:38;;;;;;;8.20;3.90;;;;;;;11.48;69.00;100285.41;126274;1097;104249;-77
2021/06/02 04:46:09;;;;;;;7.67;3.50;;;;;;;11.50;69.15;100288.99;126290;1099;104592;-79
2021/06/02 04:48:38;;;;;;;8.47;4.00;;;;;;;11.51;69.13;100277.61;126215;1099;104660;-78
2021/06/02 04:51:42;;;;;;;9.37;4.17;;;;;;;11.51;69.42;100282.87;126261;1099;104136;-78
2021/06/02 04:54:46;;;;;;;7.60;3.40;;;;;;;11.50;69.63;100284.62;126187;1099;105685;-78
2021/06/02 04:57:47;;;;;;;7.50;3.53;;;;;;;11.48;69.37;100296.83;126222;1099;104287;-77
2021/06/02 05:00:43;;;;;;;7.40;3.37;;;;;;;11.48;69.54;100293.29;126241;1099;104153;-78
2021/06/02 05:03:40;;;;;;;6.13;3.50;;;;;;;11.46;69.53;100293.25;126216;1099;104357;-78
2021/06/02 05:06:44;;;;;;;10.00;3.57;;;;;;;11.49;69.41;100288.08;126096;1099;104134;-78
2021/06/02 05:09:38;;;;;;;10.90;3.90;;;;;;;11.51;69.64;100280.23;126106;1099;105402;-76
2021/06/02 05:12:35;;;;;;;10.15;3.50;;;;;;;11.50;69.32;100286.36;126211;1099;104294;-78
2021/06/02 05:15:32;;;;;;;6.03;3.87;;;;;;;11.51;69.56;100286.41;126213;1099;104313;-79
2021/06/02 05:18:17;;;;;;;6.97;3.87;;;;;;;11.54;69.71;100275.07;126217;1099;104264;-77
2021/06/02 05:24:12;;;;;;;8.47;4.20;;;;;;;11.66;69.88;100277.16;126025;1099;104175;-76
2021/06/02 05:27:12;;;;;;;7.93;3.80;;;;;;;11.72;69.64;100274.70;126129;1099;104290;-77
2021/06/02 05:30:12;;;;;;;10.83;3.97;;;;;;;11.84;69.73;100272.41;126031;1098;104169;-77
2021/06/02 05:33:02;;;;;;;6.43;3.97;;;;;;;11.97;69.85;100264.89;126078;1099;104131;-77
2021/06/02 05:36:01;;;;;;;9.37;4.10;;;;;;;12.04;69.62;100272.06;126119;1099;104200;-79
2021/06/02 05:38:50;;;;;;;9.33;4.07;;;;;;;12.02;69.66;100285.17;126197;1099;104252;-79
2021/06/02 05:41:41;;;;;;;10.57;3.90;;;;;;;12.00;69.65;100279.00;125989;1099;104666;-77
2021/06/02 05:44:47;;;;;;;9.43;4.03;;;;;;;11.96;69.67;100282.38;126084;1099;104204;-78
2021/06/02 05:47:44;;;;;;;10.15;4.40;;;;;;;11.96;69.62;100289.39;126072;1099;104754;-78
2021/06/02 05:50:49;;;;;;;6.73;3.80;;;;;;;11.95;69.88;100283.25;126093;1099;104220;-77
2021/06/02 05:53:51;;;;;;;10.00;4.00;;;;;;;11.98;69.62;100278.08;126044;1099;104143;-77
2021/06/02 05:56:47;;;;;;;7.20;3.57;;;;;;;12.00;69.60;100283.38;125972;1098;104120;-79
2021/06/02 05:59:37;;;;;;;8.83;4.07;;;;;;;11.99;69.44;100266.69;125900;1099;104341;-76
2021/06/02 06:02:39;;;;;;;8.47;4.00;;;;;;;12.02;69.40;100277.28;125929;1099;107883;-76
2021/06/02 06:05:21;;;;;;;7.55;4.10;;;;;;;12.03;69.27;100262.42;125412;1099;104245;-77
2021/06/02 06:08:22;;;;;;;8.17;3.47;;;;;;;12.06;69.37;100278.28;125906;1099;104162;-77
2021/06/02 06:11:24;;;;;;;8.87;3.97;;;;;;;12.08;69.26;100252.90;125993;1098;104201;-79
2021/06/02 06:14:23;;;;;;;10.10;4.00;;;;;;;12.11;69.67;100255.61;126121;1099;104277;-78
2021/06/02 06:17:11;;;;;;;8.53;4.20;;;;;;;12.15;69.34;100246.04;126007;1099;104162;-79
2021/06/02 06:20:02;;;;;;;9.57;4.10;;;;;;;12.18;69.51;100247.00;126102;1098;105317;-79
2021/06/02 06:23:00;;;;;;;12.50;4.00;;;;;;;12.22;69.18;100259.39;126164;1099;104238;-78
2021/06/02 06:25:36;;;;;;;12.90;4.37;;;;;;;12.25;69.19;100262.94;126062;1098;104200;-78
2021/06/02 06:28:15;;;;;;;7.57;3.70;;;;;;;12.28;69.20;100265.64;125989;1099;104162;-79
2021/06/02 06:30:49;;;;;;;8.87;4.30;;;;;;;12.28;69.42;100268.27;125996;1099;104709;-80
2021/06/02 06:33:26;;;;;;;8.10;4.07;;;;;;;12.26;69.25;100259.47;126144;1099;104165;-78
2021/06/02 06:35:59;;;;;;;10.90;4.40;;;;;;;12.21;69.23;100262.86;126099;1099;104258;-77
2021/06/02 06:38:46;;;;;;;10.63;4.10;;;;;;;12.18;69.44;100261.91;126101;1099;104235;-77
2021/06/02 06:41:19;;;;;;;8.05;4.00;;;;;;;12.14;69.40;100255.69;126020;1099;104166;-78
2021/06/02 06:43:50;;;;;;;8.37;3.73;;;;;;;12.12;69.49;100256.48;126006;1099;104142;-78
2021/06/02 06:46:22;;;;;;;8.03;3.77;;;;;;;12.11;69.56;100268.75;126119;1099;104143;-77
2021/06/02 06:48:58;;;;;;;10.35;3.95;;;;;;;12.12;69.42;100256.48;126069;1099;104312;-78
2021/06/02 06:51:33;;;;;;;12.00;3.90;;;;;;;12.12;69.45;100254.73;126118;1099;104165;-76
2021/06/02 06:54:10;;;;;;;8.43;3.77;;;;;;;12.15;69.56;100261.83;126163;1099;104149;-77
2021/06/02 06:56:41;;;;;;;7.77;3.90;;;;;;;12.17;69.61;100261.02;126124;1099;104133;-78
2021/06/02 06:59:15;;;;;;;8.20;3.80;;;;;;;12.20;69.44;100261.10;126231;1099;104168;-79
2021/06/02 07:01:46;;;;;;;7.17;3.73;;;;;;;12.23;69.57;100268.16;126050;1099;104265;-77
2021/06/02 07:04:17;;;;;;;9.57;3.60;;;;;;;12.24;69.53;100264.69;126132;1099;104235;-80
2021/06/02 07:06:48;;;;;;;5.97;3.33;;;;;;;12.23;69.12;100274.33;126115;1098;104267;-78
2021/06/02 07:09:21;;;;;;;12.67;3.40;;;;;;;12.25;69.61;100263.84;126202;1099;104131;-78
2021/06/02 07:11:56;;;;;;;11.38;3.50;;;;;;;12.27;69.37;100277.92;126094;1099;105533;-78
2021/06/02 07:14:29;;;;;;;8.23;3.77;;;;;;;12.28;69.12;100278.80;126205;1099;104560;-78
2021/06/02 07:17:05;;;;;;;7.15;3.50;;;;;;;12.27;69.01;100277.92;126127;1099;104236;-78
2021/06/02 07:19:39;;;;;;;8.57;3.40;;;;;;;12.27;68.73;100275.29;125891;1099;104270;-78
2021/06/02 07:22:20;;;;;;;7.57;3.57;;;;;;;12.26;68.52;100296.30;125135;1099;104256;-78
2021/06/02 07:24:52;;;;;;;13.30;4.00;;;;;;;12.23;68.53;100303.27;125197;1099;104268;-79
2021/06/02 07:27:23;;;;;;;8.17;3.80;;;;;;;12.22;68.58;100295.34;125177;1099;104204;-78
2021/06/02 07:29:54;;;;;;;12.37;4.17;;;;;;;12.19;68.61;100303.15;125158;1099;104319;-80
2021/06/02 07:32:25;;;;;;;7.13;3.20;;;;;;;12.16;68.44;100297.81;125158;1099;104143;-78
2021/06/02 07:34:56;;;;;;;5.70;3.63;;;;;;;12.12;68.41;100309.97;125158;1102;104185;-80
2021/06/02 07:37:25;;;;;;;5.37;3.10;;;;;;;12.08;68.38;100315.14;125224;1102;104294;-78
2021/06/02 07:39:54;;;;;;;10.05;3.65;;;;;;;12.07;68.80;100311.59;125174;1102;104309;-79
2021/06/02 07:42:25;;;;;;;7.40;3.90;;;;;;;12.10;68.64;100310.80;125147;1100;104176;-79
2021/06/02 07:45:00;;;;;;;9.20;3.80;;;;;;;12.08;68.59;100318.65;125196;1099;104255;-79
2021/06/02 07:47:32;;;;;;;7.50;4.00;;;;;;;12.07;68.64;100319.48;125079;1100;104428;-78
2021/06/02 07:50:02;;;;;;;10.17;4.00;;;;;;;12.06;68.66;100320.36;125187;1102;104637;-78
2021/06/02 07:52:35;;;;;;;7.70;4.00;;;;;;;12.01;69.12;100332.47;125048;1099;104175;-79
2021/06/02 07:55:11;;;;;;;8.70;3.73;;;;;;;11.94;69.32;100320.02;125147;1099;104302;-80
2021/06/02 07:57:43;;;;;;;6.13;3.40;;;;;;;11.92;69.66;100326.92;125190;1099;104195;-79
2021/06/02 08:00:14;;;;;;;10.70;4.30;;;;;;;11.90;69.61;100324.25;125179;1099;104612;-79
2021/06/02 08:02:46;;;;;;;9.63;3.08;;;;;;;11.89;69.80;100322.49;125129;1099;104321;-78
2021/06/02 08:05:17;;;;;;;6.20;3.50;;;;;;;11.86;70.53;100314.52;125128;1102;104172;-77
2021/06/02 08:07:49;;;;;;;9.80;4.30;;;;;;;11.79;70.22;100318.69;125913;1099;104246;-79
2021/06/02 08:10:20;;;;;;;8.83;3.77;;;;;;;11.78;70.13;100308.14;125856;1099;104262;-77
2021/06/02 08:12:58;;;;;;;8.53;3.50;;;;;;;11.77;70.50;100317.77;125853;1099;104194;-79
2021/06/02 08:15:29;;;;;;;9.83;4.20;;;;;;;11.76;70.52;100321.23;125961;1099;104175;-77
2021/06/02 08:18:01;;;;;;;8.10;3.60;;;;;;;11.74;70.62;100317.69;125849;1099;104245;-78
2021/06/02 08:21:00;;;;;;;7.80;3.77;;;;;;;11.79;71.00;100318.69;126097;1099;104204;-78
2021/06/02 08:23:32;;;;;;;8.07;3.57;;;;;;;11.85;71.07;100324.13;125265;1099;104366;-78
2021/06/02 08:26:08;;;;;;;6.57;3.50;;;;;;;11.87;71.26;100327.70;125924;1099;104156;-78
2021/06/02 08:28:47;;;;;;;6.30;3.50;;;;;;;11.91;70.72;100326.05;125922;1099;104325;-77
2021/06/02 08:31:17;;;;;;;7.90;3.60;;;;;;;11.91;71.07;100325.16;125968;1099;104223;-78
2021/06/02 08:33:47;;;;;;;5.90;3.40;;;;;;;11.86;71.05;100327.67;125972;1099;104165;-78
2021/06/02 08:36:19;;;;;;;7.90;4.17;;;;;;;11.85;71.30;100341.65;126043;1099;104252;-79
2021/06/02 08:38:49;;;;;;;6.40;3.53;;;;;;;11.85;71.44;100334.64;126034;1099;104258;-78
2021/06/02 08:41:35;;;;;;;5.35;3.33;;;;;;;11.77;71.46;100325.66;126042;1099;104166;-79
2021/06/02 08:44:05;;;;;;;5.37;3.77;;;;;;;11.66;71.64;100329.73;125874;1099;104146;-78
2021/06/02 08:46:37;;;;;;;6.27;3.20;;;;;;;11.64;72.06;100319.17;126018;1099;104175;-78
2021/06/02 08:49:12;;;;;;;9.83;3.80;;;;;;;11.63;71.99;100325.27;125990;1098;104307;-79
2021/06/02 08:51:45;;;;;;;6.07;3.40;;;;;;;11.69;72.14;100325.44;126014;1099;104194;-78
2021/06/02 08:54:16;;;;;;;7.07;3.97;;;;;;;11.77;72.37;100333.55;125980;1099;104297;-78
2021/06/02 08:56:46;;;;;;;5.50;3.33;;;;;;;11.80;72.54;100344.15;126122;1097;104137;-78
2021/06/02 08:59:17;;;;;;;7.20;3.47;;;;;;;11.79;72.99;100333.59;126199;1097;104262;-79
2021/06/02 09:01:49;;;;;;;6.17;3.83;;;;;;;11.73;72.85;100350.06;126090;1099;104201;-79
2021/06/02 09:04:20;;;;;;;5.63;3.40;;;;;;;11.72;72.64;100344.77;126194;1099;104708;-79
2021/06/02 09:06:52;;;;;;;7.23;3.50;;;;;;;11.72;73.23;100353.56;126101;1099;104348;-80
2021/06/02 09:09:24;;;;;;;7.63;3.77;;;;;;;11.72;72.66;100340.42;126024;1099;104172;-79
2021/06/02 09:11:55;;;;;;;6.57;3.77;;;;;;;11.74;73.00;100349.23;126111;1099;104633;-79
2021/06/02 09:14:30;;;;;;;6.90;3.23;;;;;;;11.76;72.74;100349.27;126064;1099;104223;-79
2021/06/02 09:17:14;;;;;;;6.60;3.57;;;;;;;11.75;72.83;100348.39;126153;1099;104428;-79
2021/06/02 09:19:50;;;;;;;6.97;3.37;;;;;;;11.71;73.04;100349.14;126201;1099;104149;-78
2021/06/02 09:22:24;;;;;;;6.73;3.20;;;;;;;11.69;73.52;100361.36;126002;1099;104271;-79
2021/06/02 09:25:00;;;;;;;4.70;3.13;;;;;;;11.69;72.82;100351.73;125933;1099;102357;-77
2021/06/02 09:27:47;;;;;;;5.80;3.57;;;;;;;11.73;73.13;100357.07;125955;1099;104153;-77
2021/06/02 09:30:22;;;;;;;5.47;3.33;;;;;;;11.74;73.17;100359.74;125917;1098;104217;-78
2021/06/02 09:32:55;;;;;;;4.33;3.07;;;;;;;11.78;73.65;100358.08;126061;1099;104168;-78
2021/06/02 09:35:37;;;;;;;5.50;3.33;;;;;;;11.75;73.14;100356.28;126010;1099;104197;-77
2021/06/02 09:38:25;;;;;;;3.90;2.97;;;;;;;11.73;73.55;100357.95;126114;1099;104182;-79
2021/06/02 09:40:58;;;;;;;5.70;3.23;;;;;;;11.67;73.47;100355.14;126075;1099;104236;-78
2021/06/02 09:43:33;;;;;;;6.33;3.43;;;;;;;11.65;73.55;100354.22;125931;1099;104441;-78
2021/06/02 09:46:04;;;;;;;5.33;3.30;;;;;;;11.70;73.65;100349.98;125981;1099;104220;-79
2021/06/02 09:48:40;;;;;;;6.13;3.40;;;;;;;11.69;73.69;100361.36;126048;1099;104229;-79
2021/06/02 09:51:30;;;;;;;3.30;2.83;;;;;;;11.69;73.53;100353.47;126079;1099;104370;-80
2021/06/02 09:54:03;;;;;;;7.13;2.87;;;;;;;11.72;73.39;100355.28;126016;1099;104290;-78
2021/06/02 09:56:43;;;;;;;5.70;3.00;;;;;;;11.73;73.64;100357.07;125914;1099;104178;-80
2021/06/02 09:59:27;;;;;;;4.57;3.03;;;;;;;11.76;73.57;100354.53;126181;1098;104146;-79
2021/06/02 10:02:02;;;;;;;2.80;2.40;;;;;;;11.81;73.68;100359.09;126107;1099;104211;-79
2021/06/02 10:04:34;;;;;;;4.53;3.00;;;;;;;11.86;73.76;100359.22;126081;1099;104159;-79
2021/06/02 10:07:17;;;;;;;4.80;2.90;;;;;;;11.88;73.83;100368.91;125883;1099;118395;-79
2021/06/02 10:09:49;;;;;;;5.62;2.83;;;;;;;11.91;73.86;100369.86;125970;1099;104319;-79
2021/06/02 10:12:19;;;;;;;5.67;2.90;;;;;;;11.95;74.16;100362.14;126023;1099;104152;-80
2021/06/02 10:15:00;;;;;;;6.85;3.00;;;;;;;11.98;73.95;100362.22;126063;1099;104644;-80
2021/06/02 10:17:33;;;;;;;6.03;2.87;;;;;;;12.02;73.63;100357.93;126015;1099;105546;-79
2021/06/02 10:20:14;;;;;;;5.83;2.70;;;;;;;12.02;73.91;100365.81;125090;1102;104348;-80
2021/06/02 10:22:50;;;;;;;9.67;3.20;;;;;;;12.00;73.82;100367.53;125079;1102;104189;-78
2021/06/02 10:25:24;;;;;;;5.20;2.90;;;;;;;11.95;74.02;100363.86;125091;1102;104345;-78
2021/06/02 10:27:58;;;;;;;5.87;2.52;;;;;;;11.94;74.05;100360.34;125213;1102;104227;-78
2021/06/02 10:30:28;;;;;;;6.53;2.97;;;;;;;11.94;74.05;100359.47;125249;1100;104293;-79
2021/06/02 10:32:58;;;;;;;6.85;3.10;;;;;;;11.96;74.25;100352.50;125194;1102;104479;-78
2021/06/02 10:35:33;;;;;;;10.95;3.52;;;;;;;11.94;73.98;100368.23;125119;1102;104175;-80
2021/06/02 10:38:05;;;;;;;8.33;3.17;;;;;;;11.93;74.30;100379.59;125432;1099;104245;-78
2021/06/02 10:40:40;;;;;;;7.17;3.37;;;;;;;11.87;74.30;100385.55;126123;1098;104185;-78
2021/06/02 10:43:16;;;;;;;3.47;2.70;;;;;;;11.86;74.06;100382.87;126226;1099;104149;-79
2021/06/02 10:53:24;;;;;;;4.63;3.07;;;;;;;11.75;74.56;100393.08;125152;1102;104303;-79
2021/06/02 10:56:19;;;;;;;5.37;3.10;;;;;;;11.73;74.91;100397.38;125158;1102;104310;-80
2021/06/02 10:58:52;;;;;;;3.93;2.80;;;;;;;11.72;74.74;100398.25;125160;1102;104232;-80
2021/06/02 11:01:23;;;;;;;5.30;2.77;;;;;;;11.73;74.71;100400.01;125218;1102;104278;-80
2021/06/02 11:04:15;;;;;;;4.53;2.57;;;;;;;11.71;75.12;100401.71;125183;1102;104755;-81
2021/06/02 11:06:48;;;;;;;4.87;2.80;;;;;;;11.67;74.84;100403.37;125264;1102;104267;-81
2021/06/02 11:09:27;;;;;;;4.43;2.93;;;;;;;11.66;74.95;100398.06;125198;1099;104375;-80
2021/06/02 11:13:03;;;;;;;5.15;2.80;;;;;;;11.61;75.20;100410.16;125147;1102;104608;-78
2021/06/02 11:15:46;;;;;;;5.13;2.93;;;;;;;11.58;75.28;100400.47;125182;1102;104168;-79
2021/06/02 11:18:34;;;;;;;7.17;3.00;;;;;;;11.62;75.21;100411.95;125106;1102;104165;-81
2021/06/02 11:21:43;;;;;;;5.03;3.00;;;;;;;11.66;75.26;100411.20;125233;1102;104311;-80
2021/06/02 11:24:44;;;;;;;6.97;3.20;;;;;;;11.67;74.98;100410.34;125222;1102;104405;-80
2021/06/02 11:27:35;;;;;;;4.40;2.80;;;;;;;11.62;75.28;100411.95;125089;1102;104347;-80
2021/06/02 11:30:24;;;;;;;6.10;3.07;;;;;;;11.61;75.15;100415.41;125168;1102;119079;-80
2021/06/02 11:33:11;;;;;;;6.10;3.20;;;;;;;11.60;75.53;100413.66;125123;1099;104182;-80
2021/06/02 11:35:59;;;;;;;4.60;2.87;;;;;;;11.62;75.58;100412.83;126127;1099;104204;-79
2021/06/02 11:38:31;;;;;;;3.60;2.83;;;;;;;11.65;75.61;100409.41;125731;1099;104210;-80
2021/06/02 11:41:01;;;;;;;6.07;2.90;;;;;;;11.72;75.63;100407.85;125113;1099;104271;-79
2021/06/02 11:43:33;;;;;;;5.27;3.20;;;;;;;11.75;75.86;100410.56;125156;1099;104368;-80
2021/06/02 11:46:04;;;;;;;4.43;2.97;;;;;;;11.79;75.77;100405.45;125210;1102;104294;-79
2021/06/02 11:48:38;;;;;;;5.93;3.03;;;;;;;11.84;75.99;100414.38;125246;1100;104277;-81
2021/06/02 11:51:10;;;;;;;4.63;2.80;;;;;;;11.88;75.77;100412.72;125088;1102;104178;-79
2021/06/02 11:53:44;;;;;;;5.90;2.60;;;;;;;11.87;75.91;100414.47;125176;1099;104216;-80
2021/06/02 11:56:14;;;;;;;4.90;2.80;;;;;;;11.90;75.83;100411.02;125070;1099;104230;-80
2021/06/02 11:58:53;;;;;;;6.23;2.93;;;;;;;11.93;76.02;100412.89;125380;1099;104194;-80
2021/06/02 12:01:24;;;;;;;4.85;2.65;;;;;;;11.96;76.07;100412.98;126046;1099;104280;-78
2021/06/02 12:03:59;;;;;;;2.90;2.60;;;;;;;12.00;75.86;100401.71;125929;1099;104166;-80
2021/06/02 12:06:29;;;;;;;;;;;;;;;12.04;76.54;100414.08;126222;1098;104925;-78
2021/06/02 12:08:59;;;;;;;4.43;2.57;;;;;;;12.09;76.17;100414.20;126213;1099;104139;-80
2021/06/02 12:11:32;;;;;;;4.50;2.70;;;;;;;12.18;76.13;100412.72;126138;1099;104321;-77
2021/06/02 12:14:04;;;;;;;3.30;2.70;;;;;;;12.26;76.02;100401.52;126201;1099;104156;-79
2021/06/02 12:16:36;;;;;;;4.17;2.70;;;;;;;12.34;75.94;100415.77;126143;1097;104149;-78